Time;durP1;ratioP1;P1;durP2;ratioP2;P2;SDS_P1;SDS_P2;PMS_P1;PMS_P2;Temp;Humidity;BMP_temperature;BMP_pressure;BME280_temperature;BME280_humidity;BME280_pressure;Samples;Min_cycle;Max_cycle;Signal;HPM_P1;HPM_P2
2023/05/30 00:01:39;;;;;;;11.45;8.25;;;;;;;19.01;100.00;99612.91;5118745;27;20043;-64
2023/05/30 00:04:05;;;;;;;12.18;7.97;;;;;;;19.03;100.00;99614.31;5124019;27;20223;-65
2023/05/30 00:06:30;;;;;;;13.20;8.32;;;;;;;19.03;100.00;99613.50;5122790;27;20065;-65
2023/05/30 00:08:56;;;;;;;12.10;7.28;;;;;;;18.98;100.00;99619.53;5120072;28;20042;-64
2023/05/30 00:11:23;;;;;;;12.25;7.85;;;;;;;18.95;100.00;99613.78;5122965;28;20020;-64
2023/05/30 00:13:50;;;;;;;11.82;7.18;;;;;;;18.92;100.00;99617.72;5122222;27;20046;-64
2023/05/30 00:16:18;;;;;;;10.50;7.63;;;;;;;18.90;100.00;99613.63;5120197;28;20098;-64
2023/05/30 00:18:43;;;;;;;10.02;6.75;;;;;;;18.88;100.00;99611.16;5121697;28;20031;-64
2023/05/30 00:21:12;;;;;;;12.98;6.70;;;;;;;18.88;100.00;99608.47;5124417;28;20351;-65
2023/05/30 00:23:39;;;;;;;9.25;6.25;;;;;;;18.93;100.00;99613.19;5123254;28;20058;-64
2023/05/30 00:26:08;;;;;;;12.10;7.13;;;;;;;18.99;100.00;99607.75;5120957;28;20039;-64
2023/05/30 00:28:34;;;;;;;9.48;6.82;;;;;;;19.04;100.00;99613.28;5120544;28;20274;-64
2023/05/30 00:31:00;;;;;;;9.13;6.47;;;;;;;19.08;100.00;99611.81;5119345;28;20063;-64
2023/05/30 00:33:25;;;;;;;10.35;6.53;;;;;;;19.03;100.00;99611.63;5119118;28;20043;-64
2023/05/30 00:35:51;;;;;;;10.93;6.68;;;;;;;18.97;100.00;99609.00;5118474;28;20039;-65
2023/05/30 00:38:16;;;;;;;10.68;6.93;;;;;;;19.02;100.00;99611.84;5122325;28;20081;-64
2023/05/30 00:40:42;;;;;;;11.93;7.25;;;;;;;19.06;100.00;99615.75;5118695;28;20048;-64
2023/05/30 00:43:07;;;;;;;10.48;6.93;;;;;;;19.04;100.00;99612.47;5119110;28;20034;-64
2023/05/30 00:45:34;;;;;;;8.70;6.30;;;;;;;19.03;100.00;99606.28;5121579;28;20041;-64
2023/05/30 00:48:00;;;;;;;9.93;6.53;;;;;;;19.04;100.00;99609.78;5119845;28;20027;-64
2023/05/30 00:50:28;;;;;;;10.63;6.03;;;;;;;19.08;100.00;99616.34;5122681;28;20111;-64
2023/05/30 00:52:55;;;;;;;8.10;6.10;;;;;;;19.08;100.00;99608.28;5119611;28;20056;-65
2023/05/30 00:55:20;;;;;;;9.20;5.85;;;;;;;19.16;100.00;99615.25;5119961;28;20536;-64
2023/05/30 00:57:47;;;;;;;11.98;6.70;;;;;;;19.18;100.00;99613.16;5123584;28;20031;-65
2023/05/30 01:00:14;;;;;;;12.52;6.63;;;;;;;19.14;100.00;99613.59;5119909;28;20095;-64
2023/05/30 01:02:40;;;;;;;10.05;6.88;;;;;;;19.14;100.00;99624.34;5119042;28;20038;-64
2023/05/30 01:05:06;;;;;;;13.63;7.05;;;;;;;19.12;100.00;99618.38;5121278;27;20100;-64
2023/05/30 01:07:33;;;;;;;13.38;6.68;;;;;;;19.08;100.00;99614.47;5123626;28;20360;-64
2023/05/30 01:09:59;;;;;;;9.57;7.10;;;;;;;19.03;100.00;99613.50;5120743;28;20035;-64
2023/05/30 01:12:37;;;;;;;10.13;7.25;;;;;;;19.04;100.00;99621.34;5119968;28;20035;-64
2023/05/30 01:15:17;;;;;;;14.68;6.88;;;;;;;19.08;100.00;99625.22;5120314;28;20038;-64
2023/05/30 01:17:52;;;;;;;12.55;7.18;;;;;;;19.16;100.00;99618.75;5122697;28;20028;-64
2023/05/30 01:20:20;;;;;;;9.90;6.45;;;;;;;19.22;100.00;99625.91;5119491;27;20047;-64
2023/05/30 01:23:26;;;;;;;10.15;6.10;;;;;;;19.23;100.00;99626.75;5121701;27;20035;-64
2023/05/30 01:26:24;;;;;;;11.20;6.78;;;;;;;19.07;100.00;99602.09;5123441;27;20027;-64
2023/05/30 01:28:51;;;;;;;13.27;6.70;;;;;;;19.06;100.00;99618.44;5125252;27;20035;-64
2023/05/30 01:31:18;;;;;;;8.38;6.68;;;;;;;19.02;100.00;99612.69;5124845;27;20043;-64
2023/05/30 01:33:44;;;;;;;8.55;6.35;;;;;;;18.99;100.00;99607.75;5127162;27;20110;-64
2023/05/30 01:36:10;;;;;;;7.88;5.47;;;;;;;18.95;100.00;99611.91;5131645;27;21369;-64
2023/05/30 01:38:37;;;;;;;10.88;5.75;;;;;;;18.98;100.00;99616.03;5123230;27;20031;-64
2023/05/30 01:41:07;;;;;;;9.73;5.80;;;;;;;18.99;100.00;99615.81;5126389;27;20106;-64
2023/05/30 01:44:09;;;;;;;10.68;5.88;;;;;;;18.96;100.00;99610.88;5124835;27;20039;-64
2023/05/30 01:46:43;;;;;;;12.15;6.03;;;;;;;18.90;100.00;99605.56;5122935;27;20035;-64
2023/05/30 01:49:23;;;;;;;9.57;5.70;;;;;;;18.88;100.00;99610.34;5125075;27;20240;-64
2023/05/30 01:52:07;;;;;;;7.88;6.15;;;;;;;18.80;100.00;99606.06;5121471;27;20039;-64
2023/05/30 01:54:35;;;;;;;11.18;6.20;;;;;;;18.74;100.00;99613.13;5127384;27;20256;-64
2023/05/30 01:57:08;;;;;;;11.43;6.32;;;;;;;18.73;100.00;99608.78;5125804;27;20040;-64
2023/05/30 01:59:34;;;;;;;11.68;6.50;;;;;;;18.62;100.00;99612.16;5122679;27;20049;-64
2023/05/30 02:02:01;;;;;;;9.65;5.65;;;;;;;18.69;100.00;99614.78;5123311;27;20101;-64
2023/05/30 02:04:27;;;;;;;10.63;6.30;;;;;;;18.68;100.00;99613.13;5123285;27;20248;-64
2023/05/30 02:06:52;;;;;;;9.20;5.78;;;;;;;18.63;100.00;99603.06;5126021;27;20035;-64
2023/05/30 02:09:18;;;;;;;11.10;6.50;;;;;;;18.67;100.00;99609.63;5124513;27;20038;-64
2023/05/30 02:11:43;;;;;;;13.10;7.38;;;;;;;18.66;100.00;99607.16;5123743;27;20039;-64
2023/05/30 02:14:09;;;;;;;12.10;6.93;;;;;;;18.65;100.00;99605.53;5125528;27;20079;-63
2023/05/30 02:16:34;;;;;;;9.65;6.05;;;;;;;18.64;100.00;99603.88;5126897;27;20024;-63
2023/05/30 02:19:00;;;;;;;9.57;5.88;;;;;;;18.66;100.00;99607.16;5123828;27;20035;-63
2023/05/30 02:21:25;;;;;;;12.52;5.80;;;;;;;18.61;100.00;99607.81;5121796;27;20023;-63
2023/05/30 02:23:51;;;;;;;9.02;6.38;;;;;;;18.57;100.00;99606.59;5122235;27;20052;-63
2023/05/30 02:26:17;;;;;;;10.90;5.85;;;;;;;18.62;100.00;99600.59;5125605;27;20047;-63
2023/05/30 02:28:43;;;;;;;9.05;5.45;;;;;;;18.27;100.00;99606.38;5124800;27;20042;-64
2023/05/30 02:31:08;;;;;;;8.05;5.40;;;;;;;18.39;100.00;99603.81;5123320;27;20175;-64
2023/05/30 02:33:34;;;;;;;6.75;4.75;;;;;;;18.35;100.00;99606.13;5121945;27;20039;-64
2023/05/30 02:35:59;;;;;;;9.15;5.30;;;;;;;18.37;100.00;99609.41;5121541;27;20054;-64
2023/05/30 02:38:25;;;;;;;7.53;5.32;;;;;;;18.41;100.00;99602.56;5125322;27;20034;-63
2023/05/30 02:40:50;;;;;;;8.90;4.88;;;;;;;18.47;100.00;99607.06;5122911;27;20063;-64
2023/05/30 02:43:16;;;;;;;7.75;4.45;;;;;;;18.46;100.00;99609.97;5124230;27;20049;-64
2023/05/30 02:45:41;;;;;;;9.90;5.00;;;;;;;18.43;100.00;99603.16;5124536;27;20206;-64
2023/05/30 02:48:07;;;;;;;7.57;4.85;;;;;;;18.41;100.00;99613.28;5122377;27;20035;-64
2023/05/30 02:50:32;;;;;;;7.65;4.32;;;;;;;18.33;100.00;99618.09;5122036;27;20044;-65
2023/05/30 02:52:58;;;;;;;11.38;4.85;;;;;;;18.19;100.00;99620.84;5125639;27;20039;-64
2023/05/30 02:55:23;;;;;;;7.45;4.88;;;;;;;18.19;100.00;99631.56;5122120;27;20043;-64
2023/05/30 02:57:49;;;;;;;9.15;4.60;;;;;;;18.24;100.00;99628.25;5121720;27;20031;-64
2023/05/30 03:00:15;;;;;;;7.10;5.25;;;;;;;18.14;100.00;99625.19;5125184;27;20032;-64
2023/05/30 03:02:42;;;;;;;10.98;5.00;;;;;;;18.21;100.00;99622.47;5123202;27;20026;-64
2023/05/30 03:05:09;;;;;;;7.30;4.55;;;;;;;18.26;100.00;99617.31;5120667;27;20027;-64
2023/05/30 03:07:35;;;;;;;9.95;5.25;;;;;;;18.38;100.00;99621.75;5126005;27;20313;-64
2023/05/30 03:10:01;;;;;;;6.53;4.55;;;;;;;18.42;100.00;99614.09;5121687;27;20325;-64
2023/05/30 03:12:26;;;;;;;9.15;5.00;;;;;;;18.34;100.00;99620.56;5124848;27;20052;-64
2023/05/30 03:14:52;;;;;;;10.48;5.57;;;;;;;18.30;100.00;99622.00;5124324;27;20100;-64
2023/05/30 03:17:17;;;;;;;7.18;5.07;;;;;;;18.13;100.00;99618.19;5122467;27;20031;-64
2023/05/30 03:19:43;;;;;;;6.35;4.28;;;;;;;17.97;100.00;99622.19;5120231;27;20043;-64
2023/05/30 03:22:08;;;;;;;6.05;4.18;;;;;;;17.99;100.00;99622.78;5125012;27;20039;-64
2023/05/30 03:24:34;;;;;;;6.72;4.00;;;;;;;18.09;100.00;99631.19;5123399;27;20042;-64
2023/05/30 03:27:00;;;;;;;6.97;3.55;;;;;;;18.00;100.00;99620.94;5120762;27;20096;-63
2023/05/30 03:29:27;;;;;;;5.85;3.38;;;;;;;18.02;100.00;99622.38;5126014;27;20110;-63
2023/05/30 03:31:52;;;;;;;6.40;3.45;;;;;;;17.82;100.00;99627.81;5121568;27;20387;-64
2023/05/30 03:34:18;;;;;;;6.57;3.65;;;;;;;18.03;100.00;99629.38;5121717;27;20076;-64
2023/05/30 03:36:43;;;;;;;7.45;3.63;;;;;;;17.94;100.00;99637.84;5124781;27;20273;-64
2023/05/30 03:39:09;;;;;;;6.18;2.92;;;;;;;18.11;100.00;99639.84;5123598;27;20228;-64
2023/05/30 03:41:34;;;;;;;4.32;3.08;;;;;;;17.89;100.00;99645.72;5129068;27;20027;-64
2023/05/30 03:44:00;;;;;;;4.60;3.65;;;;;;;17.90;100.00;99650.84;5120310;27;20043;-63
2023/05/30 03:46:26;;;;;;;7.22;4.00;;;;;;;17.97;100.00;99643.63;5124530;27;20252;-64
2023/05/30 03:48:51;;;;;;;4.75;3.53;;;;;;;18.00;100.00;99645.88;5123119;27;20218;-64
2023/05/30 03:51:16;;;;;;;5.10;3.50;;;;;;;18.08;100.00;99653.66;5122423;27;20106;-64
2023/05/30 03:53:42;;;;;;;4.43;3.30;;;;;;;18.16;100.00;99642.72;5122669;27;20043;-64
2023/05/30 03:56:07;;;;;;;5.70;3.40;;;;;;;18.20;100.00;99651.13;5119024;27;20370;-64
2023/05/30 03:58:33;;;;;;;5.07;3.45;;;;;;;18.27;100.00;99653.78;5120926;27;20236;-63
2023/05/30 04:01:01;;;;;;;4.65;3.25;;;;;;;18.21;100.00;99646.59;5124944;27;20207;-64
2023/05/30 04:03:28;;;;;;;3.97;3.58;;;;;;;18.28;100.00;99663.47;5124120;27;20039;-64
2023/05/30 04:05:55;;;;;;;6.07;3.47;;;;;;;18.28;100.00;99663.47;5122459;27;20106;-64
2023/05/30 04:08:22;;;;;;;5.45;3.10;;;;;;;18.45;100.00;99669.97;5118842;27;20362;-64
2023/05/30 04:10:48;;;;;;;7.40;3.90;;;;;;;18.50;100.00;99670.16;5120351;27;20405;-64
2023/05/30 04:13:13;;;;;;;5.10;3.58;;;;;;;18.46;100.00;99666.25;5124557;27;20108;-63
2023/05/30 04:15:39;;;;;;;6.55;3.53;;;;;;;18.56;100.00;99665.78;5124089;27;20054;-64
2023/05/30 04:18:04;;;;;;;5.22;3.35;;;;;;;18.57;100.00;99672.78;5122685;27;20369;-64
2023/05/30 04:20:30;;;;;;;5.05;3.70;;;;;;;18.56;100.00;99680.03;5121785;28;20028;-64
2023/05/30 04:22:55;;;;;;;6.10;4.03;;;;;;;18.53;100.00;99683.13;5119909;28;20058;-64
2023/05/30 04:25:21;;;;;;;6.20;3.42;;;;;;;18.52;100.00;99682.31;5122183;28;20058;-64
2023/05/30 04:27:47;;;;;;;6.57;4.10;;;;;;;18.51;100.00;99678.00;5124037;28;20023;-64
2023/05/30 04:30:13;;;;;;;6.57;3.80;;;;;;;18.54;100.00;99678.59;5128162;28;20072;-64
2023/05/30 04:32:39;;;;;;;5.38;4.10;;;;;;;18.59;100.00;99679.59;5134828;28;20269;-64
2023/05/30 04:35:07;;;;;;;9.55;3.97;;;;;;;18.62;100.00;99681.88;5138898;27;20042;-64
2023/05/30 04:37:33;;;;;;;6.38;3.67;;;;;;;18.69;100.00;99682.66;5137878;27;20072;-64
2023/05/30 04:39:59;;;;;;;6.50;4.05;;;;;;;18.75;100.00;99687.19;5138735;28;20098;-64
2023/05/30 04:42:28;;;;;;;8.63;4.90;;;;;;;18.77;100.00;99692.34;5138843;28;20194;-64
2023/05/30 04:44:54;;;;;;;7.43;4.70;;;;;;;18.72;100.00;99684.09;5138136;27;20270;-64
2023/05/30 04:47:23;;;;;;;6.50;4.18;;;;;;;18.72;100.00;99686.75;5138434;28;20081;-64
2023/05/30 04:49:53;;;;;;;7.53;4.35;;;;;;;18.72;100.00;99701.00;5138648;27;20047;-64
2023/05/30 04:52:19;;;;;;;5.50;3.72;;;;;;;18.71;100.00;99691.31;5129615;28;20099;-64
2023/05/30 04:54:45;;;;;;;6.88;4.32;;;;;;;18.69;100.00;99696.06;5138674;27;20420;-64
2023/05/30 04:57:12;;;;;;;5.07;4.05;;;;;;;18.71;100.00;99694.00;5138494;27;20027;-64
2023/05/30 04:59:38;;;;;;;5.13;3.78;;;;;;;18.71;100.00;99703.91;5142509;27;20125;-64
2023/05/30 05:02:04;;;;;;;5.65;3.90;;;;;;;18.70;100.00;99696.88;5142533;27;20022;-65
2023/05/30 05:04:29;;;;;;;7.05;3.67;;;;;;;18.75;100.00;99702.47;5141840;27;20417;-65
2023/05/30 05:06:56;;;;;;;6.70;4.22;;;;;;;18.86;100.00;99709.00;5141684;27;20325;-65
2023/05/30 05:09:24;;;;;;;6.30;3.78;;;;;;;18.89;100.00;99712.06;5137193;27;20238;-65
2023/05/30 05:11:50;;;;;;;5.35;4.00;;;;;;;18.92;100.00;99708.94;5141549;27;20360;-65
2023/05/30 05:14:15;;;;;;;6.93;4.03;;;;;;;18.92;100.00;99714.31;5142035;27;20027;-65
2023/05/30 05:16:40;;;;;;;7.22;4.03;;;;;;;18.91;100.00;99712.66;5141499;27;20249;-65
2023/05/30 05:19:06;;;;;;;7.38;4.72;;;;;;;18.96;100.00;99718.22;5142042;27;20039;-65
2023/05/30 05:21:31;;;;;;;5.43;4.18;;;;;;;18.98;100.00;99718.00;5141645;27;20026;-65
2023/05/30 05:23:57;;;;;;;5.57;3.90;;;;;;;18.95;100.00;99719.25;5139348;27;20058;-65
2023/05/30 05:26:22;;;;;;;5.80;4.43;;;;;;;18.97;100.00;99721.72;5124181;27;20027;-65
2023/05/30 05:28:47;;;;;;;8.50;4.85;;;;;;;19.02;100.00;99724.56;5127366;27;20211;-65
2023/05/30 05:31:13;;;;;;;7.15;4.93;;;;;;;19.04;100.00;99719.81;5127931;27;20032;-65
2023/05/30 05:33:38;;;;;;;6.57;4.60;;;;;;;19.07;100.00;99720.19;5123538;27;20039;-65
2023/05/30 05:36:04;;;;;;;7.65;4.75;;;;;;;19.07;100.00;99730.09;5127353;27;20028;-65
2023/05/30 05:38:29;;;;;;;6.47;4.78;;;;;;;19.10;100.00;99726.97;5125033;27;20042;-65
2023/05/30 05:40:55;;;;;;;5.75;4.10;;;;;;;19.08;100.00;99737.13;5123457;27;20043;-65
2023/05/30 05:43:20;;;;;;;5.20;4.18;;;;;;;19.07;100.00;99735.47;5125618;27;20041;-65
2023/05/30 05:45:46;;;;;;;5.70;4.30;;;;;;;19.07;100.00;99730.09;5123339;27;20534;-65
2023/05/30 05:48:11;;;;;;;6.53;4.10;;;;;;;19.11;100.00;99734.81;5123337;27;20031;-65
2023/05/30 05:50:36;;;;;;;4.80;4.13;;;;;;;19.07;100.00;99733.59;5122693;27;20049;-65
2023/05/30 05:53:02;;;;;;;7.63;4.43;;;;;;;19.10;100.00;99737.72;5124606;27;20061;-65
2023/05/30 05:55:27;;;;;;;8.85;4.03;;;;;;;18.98;100.00;99740.28;5124125;27;20047;-65
2023/05/30 05:57:53;;;;;;;7.70;4.68;;;;;;;18.99;100.00;99735.72;5126662;27;20031;-65
2023/05/30 06:00:19;;;;;;;8.82;5.57;;;;;;;18.92;100.00;99743.81;5126630;27;20035;-65
2023/05/30 06:02:44;;;;;;;6.45;3.90;;;;;;;18.96;100.00;99733.47;5126318;27;20024;-63
2023/05/30 06:05:10;;;;;;;9.27;4.57;;;;;;;18.97;100.00;99743.19;5127405;27;20039;-64
2023/05/30 06:07:35;;;;;;;11.00;5.07;;;;;;;19.03;100.00;99739.63;5123449;27;20038;-64
2023/05/30 06:10:01;;;;;;;8.25;4.68;;;;;;;19.16;100.00;99744.06;5122724;27;20047;-64
2023/05/30 06:12:26;;;;;;;9.27;4.05;;;;;;;19.16;100.00;99746.75;5132385;27;20035;-64
2023/05/30 06:14:51;;;;;;;7.53;4.43;;;;;;;19.18;100.00;99755.41;5123172;27;20047;-64
2023/05/30 06:17:17;;;;;;;6.43;4.07;;;;;;;19.20;100.00;99753.34;5122297;27;20027;-64
2023/05/30 06:19:42;;;;;;;7.55;4.85;;;;;;;19.22;100.00;99753.94;5127652;27;20043;-64
2023/05/30 06:22:08;;;;;;;7.57;4.90;;;;;;;19.27;100.00;99756.78;5131729;27;20019;-64
2023/05/30 06:24:34;;;;;;;7.60;4.68;;;;;;;19.31;100.00;99758.81;5126733;27;20039;-64
2023/05/30 06:27:00;;;;;;;7.50;4.70;;;;;;;19.35;100.00;99761.91;5124462;27;20023;-64
2023/05/30 06:29:26;;;;;;;5.35;4.75;;;;;;;19.38;100.00;99767.66;5125149;27;20032;-64
2023/05/30 06:31:51;;;;;;;5.97;4.57;;;;;;;19.41;100.00;99767.22;5125647;27;20072;-64
2023/05/30 06:34:16;;;;;;;7.47;4.53;;;;;;;19.39;100.00;99774.66;5122761;27;20038;-64
2023/05/30 06:36:42;;;;;;;6.82;4.57;;;;;;;19.31;100.00;99776.78;5124398;27;20027;-63
2023/05/30 06:39:14;;;;;;;6.75;4.93;;;;;;;19.38;100.00;99777.56;5122242;27;20046;-65
2023/05/30 06:41:41;;;;;;;9.05;6.28;;;;;;;19.49;100.00;99784.91;5123243;27;20305;-64
2023/05/30 06:44:07;;;;;;;6.00;4.28;;;;;;;19.56;100.00;99785.72;5134455;27;20031;-64
2023/05/30 06:46:32;;;;;;;5.43;4.03;;;;;;;19.60;100.00;99786.91;5134193;27;20236;-64
2023/05/30 06:48:58;;;;;;;6.30;4.32;;;;;;;19.58;100.00;99790.88;5134610;27;20035;-64
2023/05/30 06:51:23;;;;;;;5.85;4.25;;;;;;;19.64;100.00;99785.44;5133175;27;20035;-64
2023/05/30 06:53:49;;;;;;;6.13;5.25;;;;;;;19.71;100.00;99793.44;5134564;27;20043;-64
2023/05/30 06:56:14;;;;;;;5.13;4.10;;;;;;;19.65;100.00;99795.16;5135015;27;20035;-64
2023/05/30 06:58:40;;;;;;;4.85;4.18;;;;;;;19.65;100.00;99797.84;5134017;27;20409;-64
2023/05/30 07:01:05;;;;;;;6.28;4.30;;;;;;;19.66;100.00;99794.09;5134069;27;20042;-64
2023/05/30 07:03:30;;;;;;;6.47;4.45;;;;;;;19.69;100.00;99796.34;5133861;27;20334;-64
2023/05/30 07:05:56;;;;;;;5.75;4.65;;;;;;;19.63;100.00;99799.91;5132666;27;20361;-64
2023/05/30 07:08:21;;;;;;;5.90;4.45;;;;;;;19.65;100.00;99794.31;5133085;27;20037;-65
2023/05/30 07:10:47;;;;;;;6.43;4.45;;;;;;;19.64;100.00;99796.19;5134114;27;20095;-64
2023/05/30 07:13:12;;;;;;;8.20;4.20;;;;;;;19.73;100.00;99799.41;5133135;27;20035;-64
2023/05/30 07:15:38;;;;;;;6.40;4.40;;;;;;;19.69;100.00;99795.53;5135256;27;20095;-65
2023/05/30 07:18:03;;;;;;;9.52;4.63;;;;;;;19.72;100.00;99795.09;5133331;27;20249;-64
2023/05/30 07:20:28;;;;;;;6.47;4.22;;;;;;;19.71;100.00;99788.06;5133242;27;20044;-64
2023/05/30 07:22:54;;;;;;;7.35;4.65;;;;;;;19.77;100.00;99793.41;5132566;27;20600;-64
2023/05/30 07:25:19;;;;;;;8.60;5.10;;;;;;;19.82;100.00;99792.75;5133006;27;20050;-64
2023/05/30 07:27:45;;;;;;;6.18;4.80;;;;;;;19.86;100.00;99795.81;5133795;27;20027;-65
2023/05/30 07:30:10;;;;;;;7.78;4.35;;;;;;;19.89;100.00;99804.25;5132648;27;20237;-64
2023/05/30 07:32:36;;;;;;;6.30;4.55;;;;;;;19.92;100.00;99801.13;5132069;27;20375;-64
2023/05/30 07:35:02;;;;;;;6.43;4.70;;;;;;;19.95;100.00;99800.69;5130960;27;20057;-64
2023/05/30 07:37:27;;;;;;;9.27;5.50;;;;;;;19.94;100.00;99801.72;5134242;27;20824;-65
2023/05/30 07:39:52;;;;;;;6.25;5.20;;;;;;;19.94;100.00;99804.41;5132656;27;20045;-65
2023/05/30 07:42:18;;;;;;;7.55;5.03;;;;;;;19.96;100.00;99809.56;5134647;27;20041;-65
2023/05/30 07:44:43;;;;;;;7.72;4.80;;;;;;;20.00;100.00;99800.84;5132919;27;20057;-65
2023/05/30 07:47:09;;;;;;;7.47;4.88;;;;;;;20.06;100.00;99799.13;5134264;27;20031;-65
2023/05/30 07:49:34;;;;;;;7.10;4.38;;;;;;;20.10;100.00;99811.09;5131821;27;20477;-65
2023/05/30 07:51:59;;;;;;;6.45;5.00;;;;;;;20.08;100.00;99799.72;5133836;27;20037;-65
2023/05/30 07:54:25;;;;;;;9.50;5.25;;;;;;;20.13;100.00;99810.63;5133718;27;20045;-65
2023/05/30 07:56:51;;;;;;;7.50;5.72;;;;;;;20.14;100.00;99812.28;5132038;27;20076;-65
2023/05/30 07:59:16;;;;;;;8.45;5.68;;;;;;;20.15;100.00;99802.34;5134368;27;20051;-63
2023/05/30 08:01:41;;;;;;;7.05;5.47;;;;;;;20.14;100.00;99811.47;5132128;27;20035;-64
2023/05/30 08:04:07;;;;;;;8.98;5.68;;;;;;;20.15;100.00;99811.25;5133816;27;20336;-64
2023/05/30 08:06:34;;;;;;;7.20;6.13;;;;;;;20.16;100.00;99806.69;5132739;27;20046;-64
2023/05/30 08:09:00;;;;;;;9.25;5.93;;;;;;;20.17;100.00;99801.09;5132584;27;20340;-64
2023/05/30 08:11:26;;;;;;;10.30;6.30;;;;;;;20.18;100.00;99808.09;5131847;27;20042;-63
2023/05/30 08:13:52;;;;;;;7.05;6.07;;;;;;;20.19;100.00;99807.06;5134055;27;20035;-64
2023/05/30 08:16:18;;;;;;;10.00;6.60;;;;;;;20.16;100.00;99799.44;5132173;27;20059;-63
2023/05/30 08:18:45;;;;;;;11.07;6.25;;;;;;;20.13;100.00;99802.56;5133750;27;20098;-63
2023/05/30 08:21:11;;;;;;;9.23;5.65;;;;;;;20.03;100.00;99794.19;5132525;27;20023;-63
2023/05/30 08:23:37;;;;;;;8.23;5.78;;;;;;;19.96;100.00;99796.13;5129432;27;20043;-64
2023/05/30 08:26:02;;;;;;;11.35;5.93;;;;;;;19.91;100.00;99802.19;5132437;27;20051;-64
2023/05/30 08:28:28;;;;;;;6.75;5.32;;;;;;;19.96;100.00;99796.13;5131615;27;20033;-64
2023/05/30 08:30:53;;;;;;;6.85;5.10;;;;;;;19.99;100.00;99798.38;5131430;27;20062;-64
2023/05/30 08:33:21;;;;;;;9.35;5.88;;;;;;;19.90;100.00;99800.53;5135004;27;20125;-64
2023/05/30 08:35:46;;;;;;;8.02;5.75;;;;;;;19.97;100.00;99806.66;5137643;27;20248;-64
2023/05/30 08:38:12;;;;;;;8.80;6.05;;;;;;;20.03;100.00;99804.97;5136762;27;20034;-65
2023/05/30 08:40:41;;;;;;;7.95;5.55;;;;;;;20.01;100.00;99813.25;5136199;27;20046;-65
2023/05/30 08:43:07;;;;;;;10.70;5.20;;;;;;;19.99;100.00;99804.56;5137619;27;20030;-65
2023/05/30 08:45:33;;;;;;;7.38;5.15;;;;;;;20.05;100.00;99809.06;5136218;27;20061;-65
2023/05/30 08:48:01;;;;;;;8.43;6.00;;;;;;;20.09;100.00;99807.56;5137761;27;20035;-65
2023/05/30 08:50:28;;;;;;;8.75;5.53;;;;;;;20.13;100.00;99807.13;5136180;27;20365;-65
2023/05/30 08:53:01;;;;;;;8.18;6.10;;;;;;;20.12;100.00;99811.69;5137495;27;20054;-65
2023/05/30 08:55:31;;;;;;;10.93;7.07;;;;;;;20.02;100.00;99795.25;5136349;27;20325;-64
2023/05/30 08:58:15;;;;;;;12.75;6.85;;;;;;;20.17;100.00;99811.84;5135987;27;20034;-65
2023/05/30 09:00:42;;;;;;;13.27;7.85;;;;;;;20.20;100.00;99815.94;5135682;27;20382;-65
2023/05/30 09:03:09;;;;;;;13.60;8.25;;;;;;;20.17;100.00;99801.09;5137700;27;20030;-65
2023/05/30 09:05:35;;;;;;;12.60;8.50;;;;;;;20.28;100.00;99807.59;5135460;27;20329;-65
2023/05/30 09:08:02;;;;;;;16.48;8.07;;;;;;;20.32;100.00;99806.09;5118958;27;20221;-65
2023/05/30 09:10:32;;;;;;;14.75;10.10;;;;;;;20.37;100.00;99809.75;5134620;27;20075;-65
2023/05/30 09:12:59;;;;;;;12.63;8.63;;;;;;;20.38;100.00;99813.28;5134421;27;20043;-65
2023/05/30 09:15:24;;;;;;;12.50;8.18;;;;;;;20.42;100.00;99806.44;5135835;27;20347;-65
2023/05/30 09:17:50;;;;;;;12.77;8.18;;;;;;;20.46;100.00;99813.00;5133084;27;20051;-65
2023/05/30 09:20:20;;;;;;;10.95;7.20;;;;;;;20.47;100.00;99813.81;5136495;27;20035;-65
2023/05/30 09:22:45;;;;;;;8.70;6.03;;;;;;;20.47;100.00;99809.25;5132078;27;20023;-65
2023/05/30 09:25:15;;;;;;;10.80;7.18;;;;;;;20.46;100.00;99810.31;5135302;27;20034;-65
2023/05/30 09:27:46;;;;;;;9.50;6.68;;;;;;;20.43;100.00;99805.38;5136862;27;20247;-65
2023/05/30 09:30:12;;;;;;;8.50;6.30;;;;;;;20.42;100.00;99808.28;5134933;27;20431;-65
2023/05/30 09:32:39;;;;;;;12.35;6.78;;;;;;;20.42;100.00;99806.44;5135176;27;20035;-65
2023/05/30 09:35:12;;;;;;;10.25;6.80;;;;;;;20.43;100.00;99805.38;5136605;27;20027;-65
2023/05/30 09:37:43;;;;;;;10.70;6.90;;;;;;;20.40;100.00;99809.34;5134952;27;20039;-65
2023/05/30 09:40:15;;;;;;;9.27;7.07;;;;;;;20.35;100.00;99801.09;5133519;27;20287;-65
2023/05/30 09:42:47;;;;;;;10.02;7.50;;;;;;;20.36;100.00;99801.91;5135386;27;20050;-65
2023/05/30 09:45:18;;;;;;;12.02;7.88;;;;;;;20.37;100.00;99801.69;5133978;27;20039;-65
2023/05/30 09:47:45;;;;;;;14.90;8.25;;;;;;;20.43;100.00;99797.31;5133559;27;20050;-65
2023/05/30 09:50:13;;;;;;;11.07;7.75;;;;;;;20.45;100.00;99792.53;5136209;27;20359;-65
2023/05/30 09:52:40;;;;;;;9.65;7.03;;;;;;;20.47;100.00;99793.13;5135059;27;20035;-65
2023/05/30 09:55:13;;;;;;;11.95;7.63;;;;;;;20.51;100.00;99791.63;5136990;27;20038;-65
2023/05/30 09:57:40;;;;;;;8.60;6.60;;;;;;;20.54;100.00;99793.03;5134384;27;20049;-65
2023/05/30 10:00:12;;;;;;;9.75;6.57;;;;;;;20.55;100.00;99795.50;5133250;27;20046;-65
2023/05/30 10:02:44;;;;;;;10.70;7.53;;;;;;;20.60;100.00;99798.34;5136163;27;20031;-65
2023/05/30 10:05:24;;;;;;;11.02;7.25;;;;;;;20.67;100.00;99790.19;5136083;27;20058;-65
2023/05/30 10:07:52;;;;;;;14.18;7.78;;;;;;;20.73;100.00;99791.97;5134514;27;20268;-65
2023/05/30 10:10:18;;;;;;;14.63;7.85;;;;;;;20.79;100.00;99782.19;5135701;27;20228;-65
2023/05/30 10:12:48;;;;;;;12.82;7.75;;;;;;;20.78;100.00;99788.59;5135462;27;20047;-65
2023/05/30 10:15:14;;;;;;;11.65;8.30;;;;;;;20.88;100.00;99786.22;5135199;27;20031;-65
2023/05/30 10:17:46;;;;;;;11.82;7.78;;;;;;;20.93;100.00;99786.34;5133661;27;20313;-65
2023/05/30 10:20:14;;;;;;;12.52;8.18;;;;;;;20.97;100.00;99791.06;5134109;27;20065;-65
2023/05/30 10:22:43;;;;;;;13.07;8.55;;;;;;;21.02;100.00;99795.75;5134762;27;20091;-65
2023/05/30 10:25:10;;;;;;;15.52;8.80;;;;;;;21.07;100.00;99789.69;5133843;27;20392;-65
2023/05/30 10:27:43;;;;;;;13.80;8.75;;;;;;;21.11;100.00;99801.63;5133554;27;20046;-65
2023/05/30 10:30:11;;;;;;;17.67;9.38;;;;;;;21.15;100.00;99790.19;5135902;27;20031;-65
2023/05/30 10:32:42;;;;;;;14.95;10.20;;;;;;;21.20;100.00;99789.50;5134792;27;20248;-65
2023/05/30 10:35:11;;;;;;;15.35;10.18;;;;;;;21.15;100.00;99787.47;5134276;27;20072;-65
2023/05/30 10:37:37;;;;;;;15.02;9.43;;;;;;;21.22;100.00;99782.00;5137797;27;20343;-65
2023/05/30 10:40:25;;;;;;;12.57;8.68;;;;;;;21.25;100.00;99785.09;5139533;27;20047;-65
2023/05/30 10:42:53;;;;;;;11.93;7.55;;;;;;;21.31;100.00;99794.13;5139698;27;20062;-65
2023/05/30 10:45:27;;;;;;;11.35;7.63;;;;;;;21.37;100.00;99785.09;5140119;27;20124;-65
2023/05/30 10:47:56;;;;;;;10.23;6.15;;;;;;;21.46;100.00;99781.03;5139791;27;20250;-65
2023/05/30 10:50:41;;;;;;;8.93;4.80;;;;;;;21.51;100.00;99783.03;5138877;27;20035;-65
2023/05/30 10:53:17;;;;;;;9.10;5.35;;;;;;;21.52;100.00;99788.19;5139478;27;20046;-65
2023/05/30 10:55:46;;;;;;;6.78;5.47;;;;;;;21.51;100.00;99785.72;5137517;27;20042;-65
2023/05/30 10:58:34;;;;;;;8.93;4.53;;;;;;;21.47;100.00;99781.84;5138653;27;20326;-65
2023/05/30 11:01:21;;;;;;;7.22;4.72;;;;;;;21.44;100.00;99779.63;5138539;27;20031;-65
2023/05/30 11:03:46;;;;;;;7.60;4.60;;;;;;;21.56;100.00;99777.75;5137441;27;20053;-65
2023/05/30 11:06:12;;;;;;;5.78;4.63;;;;;;;21.62;100.00;99776.81;5138798;27;20023;-65
2023/05/30 11:08:39;;;;;;;7.20;4.68;;;;;;;21.68;100.00;99779.41;5138017;27;20035;-65
2023/05/30 11:11:15;;;;;;;10.32;4.80;;;;;;;21.76;100.00;99775.53;5136907;27;20244;-65
2023/05/30 11:13:44;;;;;;;7.43;4.43;;;;;;;21.74;100.00;99766.88;5139136;27;20046;-65
2023/05/30 11:16:23;;;;;;;6.75;4.80;;;;;;;21.72;100.00;99768.16;5138594;27;20023;-65
2023/05/30 11:18:51;;;;;;;6.88;4.30;;;;;;;21.74;100.00;99766.06;5139020;27;20035;-65
2023/05/30 11:21:55;;;;;;;6.13;4.32;;;;;;;21.80;100.00;99760.53;5139308;27;20027;-65
2023/05/30 11:24:20;;;;;;;;;;;;;;;21.73;100.00;99767.94;5139328;27;20051;-65